createdAt,value
2018-04-27T00:00:31.626Z,0.00
2018-04-27T00:01:31.523Z,0.00
2018-04-27T00:02:31.421Z,0.00
2018-04-27T00:03:31.329Z,0.00
2018-04-27T00:04:31.225Z,0.00
2018-04-27T00:05:31.123Z,0.00
2018-04-27T00:06:31.018Z,0.00
2018-04-27T00:07:30.915Z,0.00
2018-04-27T00:08:30.859Z,0.00
2018-04-27T00:09:30.712Z,0.00
2018-04-27T00:10:30.606Z,0.00
2018-04-27T00:11:30.515Z,0.00
2018-04-27T00:12:30.411Z,0.00
2018-04-27T00:13:30.307Z,0.00
2018-04-27T00:14:30.204Z,0.00
2018-04-27T00:15:30.100Z,0.00
2018-04-27T00:16:29.998Z,0.00
2018-04-27T00:17:29.895Z,0.00
2018-04-27T00:18:29.791Z,0.00
2018-04-27T00:19:29.688Z,0.00
2018-04-27T00:20:29.597Z,0.00
2018-04-27T00:21:29.493Z,0.00
2018-04-27T00:22:29.390Z,0.00
2018-04-27T00:23:29.286Z,0.00
2018-04-27T00:24:29.183Z,0.00
2018-04-27T00:25:29.079Z,0.00
2018-04-27T00:26:28.977Z,0.00
2018-04-27T00:27:28.873Z,0.00
2018-04-27T00:28:28.771Z,0.00
2018-04-27T00:29:28.682Z,0.00
2018-04-27T00:30:28.575Z,0.00
2018-04-27T00:31:28.471Z,0.00
2018-04-27T00:32:28.368Z,0.00
2018-04-27T00:33:28.265Z,0.00
2018-04-27T00:34:28.190Z,0.00
2018-04-27T00:35:28.059Z,0.00
2018-04-27T00:36:27.956Z,0.00
2018-04-27T00:37:27.853Z,0.00
2018-04-27T00:38:27.766Z,0.00
2018-04-27T00:39:27.662Z,0.00
2018-04-27T00:40:27.855Z,0.00
2018-04-27T00:41:27.453Z,0.00
2018-04-27T00:42:27.349Z,0.00
2018-04-27T00:43:27.245Z,0.00
2018-04-27T00:44:27.146Z,0.00
2018-04-27T00:45:27.039Z,0.00
2018-04-27T00:46:26.948Z,0.00
2018-04-27T00:47:26.844Z,0.00
2018-04-27T00:48:26.741Z,0.00
2018-04-27T00:49:26.638Z,0.00
2018-04-27T00:50:26.534Z,0.00
2018-04-27T00:51:26.432Z,0.00
2018-04-27T00:52:26.329Z,0.00
2018-04-27T00:53:26.224Z,0.00
2018-04-27T00:54:26.122Z,0.00
2018-04-27T00:55:26.030Z,0.00
2018-04-27T00:56:25.927Z,0.00
2018-04-27T00:57:25.825Z,0.00
2018-04-27T00:58:25.721Z,0.00
2018-04-27T00:59:25.623Z,0.00
2018-04-27T01:00:25.815Z,0.00
2018-04-27T01:01:25.411Z,0.00
2018-04-27T01:02:25.312Z,0.00
2018-04-27T01:03:25.207Z,0.00
2018-04-27T01:04:25.102Z,0.00
2018-04-27T01:05:24.998Z,0.00
2018-04-27T01:06:24.908Z,0.00
2018-04-27T01:07:24.817Z,0.00
2018-04-27T01:08:24.701Z,0.00
2018-04-27T01:09:24.597Z,0.00
2018-04-27T01:10:24.494Z,0.00
2018-04-27T01:11:24.390Z,0.00
2018-04-27T01:12:24.288Z,0.00
2018-04-27T01:13:24.184Z,0.00
2018-04-27T01:14:24.081Z,0.00
2018-04-27T01:15:23.978Z,0.00
2018-04-27T01:16:23.874Z,0.00
2018-04-27T01:17:23.771Z,0.00
2018-04-27T01:18:23.669Z,0.00
2018-04-27T01:19:23.567Z,0.00
2018-04-27T01:20:23.475Z,0.00
2018-04-27T01:21:23.371Z,0.00
2018-04-27T01:22:23.267Z,0.00
2018-04-27T01:23:23.165Z,0.00
2018-04-27T01:24:23.061Z,0.00
2018-04-27T01:25:22.959Z,0.00
2018-04-27T01:26:22.855Z,0.00
2018-04-27T01:27:22.752Z,0.00
2018-04-27T01:28:22.648Z,0.00
2018-04-27T01:29:22.543Z,0.00
2018-04-27T01:30:22.440Z,0.00
2018-04-27T01:31:22.337Z,0.00
2018-04-27T01:32:22.234Z,0.00
2018-04-27T01:33:22.134Z,0.00
2018-04-27T01:34:22.038Z,0.00
2018-04-27T01:35:21.935Z,0.00
2018-04-27T01:36:21.832Z,0.00
2018-04-27T01:37:21.730Z,0.00
2018-04-27T01:38:21.625Z,0.00
2018-04-27T01:39:21.522Z,0.00
2018-04-27T01:40:21.418Z,0.00
2018-04-27T01:41:21.315Z,0.00
2018-04-27T01:42:21.213Z,0.00
2018-04-27T01:43:21.110Z,0.00
2018-04-27T01:44:21.006Z,0.00
2018-04-27T01:45:20.903Z,0.00
2018-04-27T01:46:20.799Z,0.00
2018-04-27T01:47:20.694Z,0.00
2018-04-27T01:48:20.592Z,0.00
2018-04-27T01:49:20.490Z,0.00
2018-04-27T01:50:20.386Z,0.00
2018-04-27T01:51:20.294Z,0.00
2018-04-27T01:52:20.180Z,0.00
2018-04-27T01:53:20.076Z,0.00
2018-04-27T01:54:19.984Z,0.00
2018-04-27T01:55:19.883Z,0.00
2018-04-27T01:56:19.778Z,0.00
2018-04-27T01:57:19.675Z,0.00
2018-04-27T01:58:19.572Z,0.00
2018-04-27T01:59:19.468Z,0.00
2018-04-27T02:00:19.365Z,0.00
2018-04-27T02:01:19.261Z,0.00
2018-04-27T02:02:19.158Z,0.00
2018-04-27T02:03:19.053Z,0.00
2018-04-27T02:04:18.951Z,0.00
2018-04-27T02:05:18.847Z,0.00
2018-04-27T02:06:18.745Z,0.00
2018-04-27T02:07:18.641Z,0.00
2018-04-27T02:08:18.538Z,0.00
2018-04-27T02:09:18.436Z,0.00
2018-04-27T02:10:18.331Z,0.00
2018-04-27T02:11:18.231Z,0.00
2018-04-27T02:12:18.120Z,0.00
2018-04-27T02:13:18.022Z,0.00
2018-04-27T02:14:17.918Z,0.00
2018-04-27T02:15:17.815Z,0.00
2018-04-27T02:16:17.713Z,0.00
2018-04-27T02:17:17.609Z,0.00
2018-04-27T02:18:17.513Z,0.00
2018-04-27T02:19:17.401Z,0.00
2018-04-27T02:20:17.298Z,0.00
2018-04-27T02:21:17.196Z,0.00
2018-04-27T02:22:17.093Z,0.00
2018-04-27T02:23:16.988Z,0.00
2018-04-27T02:24:16.890Z,0.00
2018-04-27T02:25:16.782Z,0.00
2018-04-27T02:26:16.681Z,0.00
2018-04-27T02:27:16.575Z,0.00
2018-04-27T02:28:16.472Z,0.00
2018-04-27T02:29:16.369Z,0.00
2018-04-27T02:30:16.270Z,0.00
2018-04-27T02:31:16.162Z,0.00
2018-04-27T02:32:16.058Z,0.00
2018-04-27T02:33:15.998Z,0.00
2018-04-27T02:34:15.854Z,0.00
2018-04-27T02:35:15.757Z,0.00
2018-04-27T02:36:15.649Z,0.00
2018-04-27T02:37:15.543Z,0.00
2018-04-27T02:38:15.438Z,0.00
2018-04-27T02:39:15.334Z,0.00
2018-04-27T02:40:15.231Z,0.00
2018-04-27T02:41:15.128Z,0.00
2018-04-27T02:42:15.025Z,0.00
2018-04-27T02:43:14.929Z,0.00
2018-04-27T02:44:14.817Z,0.00
2018-04-27T02:45:14.715Z,0.00
2018-04-27T02:46:14.613Z,0.00
2018-04-27T02:47:14.506Z,0.00
2018-04-27T02:48:14.405Z,0.00
2018-04-27T02:49:14.306Z,0.00
2018-04-27T02:50:14.199Z,0.00
2018-04-27T02:51:14.099Z,0.00
2018-04-27T02:52:13.993Z,0.00
2018-04-27T02:53:13.890Z,0.00
2018-04-27T02:54:13.785Z,0.00
2018-04-27T02:55:13.689Z,0.00
2018-04-27T02:56:13.579Z,0.00
2018-04-27T02:57:13.476Z,0.00
2018-04-27T02:58:13.372Z,0.00
2018-04-27T02:59:13.268Z,0.00
2018-04-27T03:00:13.169Z,0.00
2018-04-27T03:01:13.062Z,0.00
2018-04-27T03:02:12.960Z,0.00
2018-04-27T03:03:12.856Z,0.00
2018-04-27T03:04:12.741Z,0.00
2018-04-27T03:05:12.886Z,0.00
2018-04-27T03:06:12.533Z,0.00
2018-04-27T03:07:12.431Z,0.00
2018-04-27T03:08:12.326Z,0.00
2018-04-27T03:09:12.222Z,0.00
2018-04-27T03:10:12.123Z,0.00
2018-04-27T03:11:12.067Z,0.00
2018-04-27T03:12:11.916Z,0.00
2018-04-27T03:13:11.809Z,0.00
2018-04-27T03:14:11.706Z,0.00
2018-04-27T03:15:11.602Z,0.00
2018-04-27T03:16:11.498Z,0.00
2018-04-27T03:17:11.396Z,0.00
2018-04-27T03:18:11.293Z,0.00
2018-04-27T03:19:11.189Z,0.00
2018-04-27T03:20:11.086Z,0.00
2018-04-27T03:21:10.983Z,0.00
2018-04-27T03:22:10.879Z,0.00
2018-04-27T03:23:10.776Z,0.00
2018-04-27T03:24:10.675Z,0.00
2018-04-27T03:25:10.819Z,0.00
2018-04-27T03:26:10.465Z,0.00
2018-04-27T03:27:10.352Z,0.00
2018-04-27T03:28:10.254Z,0.00
2018-04-27T03:29:10.145Z,0.00
2018-04-27T03:30:10.042Z,0.00
2018-04-27T03:31:09.939Z,0.00
2018-04-27T03:32:09.835Z,0.00
2018-04-27T03:33:09.732Z,0.00
2018-04-27T03:34:09.629Z,0.00
2018-04-27T03:35:09.525Z,0.00
2018-04-27T03:36:09.421Z,0.00
2018-04-27T03:37:09.319Z,0.00
2018-04-27T03:38:09.215Z,5.63
2018-04-27T03:39:09.112Z,5.63
2018-04-27T03:40:09.008Z,5.63
2018-04-27T03:41:08.909Z,5.63
2018-04-27T03:42:08.801Z,5.63
2018-04-27T03:43:08.697Z,5.63
2018-04-27T03:44:08.594Z,5.63
2018-04-27T03:45:08.479Z,5.63
2018-04-27T03:46:08.375Z,11.25
2018-04-27T03:47:08.271Z,11.25
2018-04-27T03:48:08.168Z,11.25
2018-04-27T03:49:08.064Z,11.25
2018-04-27T03:50:07.962Z,11.25
2018-04-27T03:51:07.861Z,16.88
2018-04-27T03:52:07.755Z,16.88
2018-04-27T03:53:07.651Z,16.88
2018-04-27T03:54:07.547Z,16.88
2018-04-27T03:55:07.444Z,16.88
2018-04-27T03:56:07.341Z,22.50
2018-04-27T03:57:07.238Z,22.50
2018-04-27T03:58:07.135Z,22.50
2018-04-27T03:59:07.031Z,28.13
2018-04-27T04:00:06.935Z,28.13
2018-04-27T04:01:06.998Z,28.13
2018-04-27T04:02:06.710Z,28.13
2018-04-27T04:03:06.606Z,33.75
2018-04-27T04:04:06.503Z,33.75
2018-04-27T04:05:06.400Z,33.75
2018-04-27T04:06:06.296Z,39.38
2018-04-27T04:07:06.195Z,39.38
2018-04-27T04:08:06.090Z,39.38
2018-04-27T04:09:05.989Z,45.00
2018-04-27T04:10:05.882Z,50.63
2018-04-27T04:11:05.780Z,50.63
2018-04-27T04:12:05.676Z,50.63
2018-04-27T04:13:05.573Z,56.25
2018-04-27T04:14:05.470Z,61.88
2018-04-27T04:15:05.366Z,61.88
2018-04-27T04:16:05.263Z,73.13
2018-04-27T04:17:05.160Z,84.38
2018-04-27T04:18:05.056Z,90.00
2018-04-27T04:19:04.953Z,95.63
2018-04-27T04:20:04.854Z,95.63
2018-04-27T04:21:04.746Z,101.25
2018-04-27T04:22:04.643Z,106.88
2018-04-27T04:23:04.539Z,106.88
2018-04-27T04:24:04.436Z,106.88
2018-04-27T04:25:04.333Z,112.50
2018-04-27T04:26:04.230Z,112.50
2018-04-27T04:27:04.127Z,112.50
2018-04-27T04:28:04.024Z,112.50
2018-04-27T04:29:03.919Z,112.50
2018-04-27T04:30:03.816Z,118.13
2018-04-27T04:31:03.713Z,123.75
2018-04-27T04:32:03.610Z,129.38
2018-04-27T04:33:03.506Z,129.38
2018-04-27T04:34:03.404Z,129.38
2018-04-27T04:35:03.300Z,146.25
2018-04-27T04:36:03.199Z,146.25
2018-04-27T04:37:03.105Z,140.63
2018-04-27T04:38:03.001Z,123.75
2018-04-27T04:39:02.897Z,112.50
2018-04-27T04:40:03.045Z,118.13
2018-04-27T04:41:02.691Z,112.50
2018-04-27T04:42:02.589Z,118.13
2018-04-27T04:43:02.485Z,118.13
2018-04-27T04:44:02.383Z,118.13
2018-04-27T04:45:02.333Z,112.50
2018-04-27T04:46:02.192Z,118.13
2018-04-27T04:47:02.085Z,118.13
2018-04-27T04:48:01.982Z,118.13
2018-04-27T04:49:01.879Z,123.75
2018-04-27T04:50:01.776Z,129.38
2018-04-27T04:51:01.684Z,129.38
2018-04-27T04:52:01.581Z,129.38
2018-04-27T04:53:01.477Z,129.38
2018-04-27T04:54:01.373Z,129.38
2018-04-27T04:55:01.270Z,129.38
2018-04-27T04:56:01.167Z,112.50
2018-04-27T04:57:01.065Z,112.50
2018-04-27T04:58:00.974Z,106.88
2018-04-27T04:59:00.870Z,101.25
2018-04-27T05:00:00.767Z,106.88
2018-04-27T05:01:00.663Z,118.13
2018-04-27T05:02:00.561Z,123.75
2018-04-27T05:03:00.506Z,129.38
2018-04-27T05:04:00.366Z,129.38
2018-04-27T05:05:00.262Z,140.63
2018-04-27T05:06:00.161Z,168.75
2018-04-27T05:07:00.056Z,180.00
2018-04-27T05:07:59.953Z,185.63
2018-04-27T05:08:59.849Z,185.63
2018-04-27T05:09:59.758Z,191.25
2018-04-27T05:10:59.655Z,168.75
2018-04-27T05:11:59.552Z,180.00
2018-04-27T05:12:59.451Z,208.13
2018-04-27T05:13:59.345Z,225.00
2018-04-27T05:14:59.242Z,286.88
2018-04-27T05:15:59.151Z,225.00
2018-04-27T05:16:59.047Z,225.00
2018-04-27T05:17:58.944Z,219.38
2018-04-27T05:18:58.840Z,219.38
2018-04-27T05:19:58.737Z,225.00
2018-04-27T05:20:58.634Z,208.13
2018-04-27T05:21:58.533Z,208.13
2018-04-27T05:22:58.441Z,213.75
2018-04-27T05:23:58.338Z,219.38
2018-04-27T05:24:58.234Z,219.38
2018-04-27T05:25:58.136Z,225.00
2018-04-27T05:26:58.030Z,230.63
2018-04-27T05:27:57.936Z,236.25
2018-04-27T05:28:57.833Z,241.88
2018-04-27T05:29:57.733Z,247.50
2018-04-27T05:30:57.628Z,258.75
2018-04-27T05:31:57.535Z,275.63
2018-04-27T05:32:57.433Z,303.75
2018-04-27T05:33:57.328Z,354.38
2018-04-27T05:34:57.226Z,421.88
2018-04-27T05:35:57.128Z,444.38
2018-04-27T05:36:57.027Z,444.38
2018-04-27T05:37:56.930Z,450.00
2018-04-27T05:38:56.823Z,472.50
2018-04-27T05:39:56.970Z,461.25
2018-04-27T05:40:56.617Z,461.25
2018-04-27T05:41:56.527Z,450.00
2018-04-27T05:42:56.424Z,478.13
2018-04-27T05:43:56.321Z,495.00
2018-04-27T05:44:56.229Z,517.50
2018-04-27T05:45:56.126Z,472.50
2018-04-27T05:46:56.026Z,444.38
2018-04-27T05:47:55.932Z,427.50
2018-04-27T05:48:55.851Z,461.25
2018-04-27T05:49:55.724Z,478.13
2018-04-27T05:50:55.634Z,444.38
2018-04-27T05:51:55.531Z,444.38
2018-04-27T05:52:55.428Z,455.63
2018-04-27T05:53:55.337Z,416.25
2018-04-27T05:54:55.233Z,444.38
2018-04-27T05:55:55.142Z,511.88
2018-04-27T05:56:55.039Z,511.88
2018-04-27T05:57:54.939Z,528.75
2018-04-27T05:58:54.846Z,511.88
2018-04-27T05:59:55.027Z,562.50
2018-04-27T06:00:54.651Z,534.38
2018-04-27T06:01:54.547Z,534.38
2018-04-27T06:02:54.458Z,472.50
2018-04-27T06:03:54.355Z,511.88
2018-04-27T06:04:54.263Z,545.63
2018-04-27T06:05:54.159Z,613.13
2018-04-27T06:06:54.070Z,652.50
2018-04-27T06:07:53.966Z,708.75
2018-04-27T06:08:53.875Z,669.38
2018-04-27T06:09:53.771Z,708.75
2018-04-27T06:10:53.682Z,703.13
2018-04-27T06:11:53.579Z,658.13
2018-04-27T06:12:53.486Z,652.50
2018-04-27T06:13:53.383Z,624.38
2018-04-27T06:14:53.292Z,607.50
2018-04-27T06:15:53.201Z,601.88
2018-04-27T06:16:53.097Z,585.00
2018-04-27T06:17:53.011Z,568.13
2018-04-27T06:18:52.904Z,624.38
2018-04-27T06:19:53.063Z,624.38
2018-04-27T06:20:52.722Z,646.88
2018-04-27T06:21:52.621Z,703.13
2018-04-27T06:22:52.532Z,714.38
2018-04-27T06:23:52.437Z,748.13
2018-04-27T06:24:52.334Z,596.25
2018-04-27T06:25:52.243Z,618.75
2018-04-27T06:26:52.157Z,720.00
2018-04-27T06:27:52.054Z,765.00
2018-04-27T06:28:51.963Z,686.25
2018-04-27T06:29:51.868Z,742.50
2018-04-27T06:30:51.781Z,680.63
2018-04-27T06:31:51.693Z,731.25
2018-04-27T06:32:51.583Z,736.88
2018-04-27T06:33:51.491Z,776.25
2018-04-27T06:34:51.390Z,787.50
2018-04-27T06:35:51.297Z,736.88
2018-04-27T06:36:51.206Z,708.75
2018-04-27T06:37:51.116Z,742.50
2018-04-27T06:38:51.021Z,855.00
2018-04-27T06:39:51.171Z,1006.88
2018-04-27T06:40:50.832Z,1141.88
2018-04-27T06:41:50.776Z,1153.13
2018-04-27T06:42:50.649Z,1164.38
2018-04-27T06:43:50.547Z,1237.50
2018-04-27T06:44:50.454Z,1344.38
2018-04-27T06:45:50.364Z,1366.88
2018-04-27T06:46:50.273Z,1333.13
2018-04-27T06:47:50.183Z,1586.25
2018-04-27T06:48:50.080Z,1659.38
2018-04-27T06:49:49.988Z,1625.63
2018-04-27T06:50:49.897Z,1625.63
2018-04-27T06:51:49.806Z,1462.50
2018-04-27T06:52:49.716Z,1406.25
2018-04-27T06:53:49.624Z,1451.25
2018-04-27T06:54:49.536Z,1423.13
2018-04-27T06:55:49.434Z,1591.88
2018-04-27T06:56:49.341Z,1659.38
2018-04-27T06:57:49.250Z,1693.13
2018-04-27T06:58:49.158Z,1687.50
2018-04-27T06:59:49.068Z,1665.00
2018-04-27T07:00:48.976Z,1693.13
2018-04-27T07:01:48.887Z,1783.13
2018-04-27T07:02:48.798Z,1614.38
2018-04-27T07:03:48.704Z,1873.13
2018-04-27T07:04:48.613Z,1946.25
2018-04-27T07:05:48.523Z,1766.25
2018-04-27T07:06:48.432Z,1383.75
2018-04-27T07:07:48.348Z,1828.13
2018-04-27T07:08:48.250Z,1845.00
2018-04-27T07:09:48.162Z,1968.75
2018-04-27T07:10:48.068Z,2030.63
2018-04-27T07:11:47.984Z,1996.88
2018-04-27T07:12:47.887Z,1755.00
2018-04-27T07:13:47.798Z,1963.13
2018-04-27T07:14:47.706Z,1996.88
2018-04-27T07:15:47.615Z,2036.25
2018-04-27T07:16:47.557Z,2193.75
2018-04-27T07:17:47.434Z,2390.63
2018-04-27T07:18:47.343Z,2221.88
2018-04-27T07:19:47.264Z,2109.38
2018-04-27T07:20:47.175Z,2137.50
2018-04-27T07:21:47.082Z,2351.25
2018-04-27T07:22:46.993Z,2103.75
2018-04-27T07:23:46.901Z,1766.25
2018-04-27T07:24:46.816Z,1811.25
2018-04-27T07:25:46.721Z,1676.25
2018-04-27T07:26:46.630Z,1828.13
2018-04-27T07:27:46.538Z,1591.88
2018-04-27T07:28:46.456Z,1310.63
2018-04-27T07:29:46.357Z,815.63
2018-04-27T07:30:46.278Z,573.75
2018-04-27T07:31:46.187Z,534.38
2018-04-27T07:32:46.096Z,523.13
2018-04-27T07:33:46.006Z,517.50
2018-04-27T07:34:45.918Z,495.00
2018-04-27T07:35:45.825Z,500.63
2018-04-27T07:36:45.733Z,511.88
2018-04-27T07:37:45.646Z,517.50
2018-04-27T07:38:45.551Z,528.75
2018-04-27T07:39:45.545Z,523.13
2018-04-27T07:40:45.359Z,506.25
2018-04-27T07:41:45.267Z,511.88
2018-04-27T07:42:45.178Z,511.88
2018-04-27T07:43:45.085Z,523.13
2018-04-27T07:44:44.993Z,528.75
2018-04-27T07:45:44.903Z,545.63
2018-04-27T07:46:44.820Z,579.38
2018-04-27T07:47:44.721Z,585.00
2018-04-27T07:48:44.631Z,556.88
2018-04-27T07:49:44.527Z,528.75
2018-04-27T07:50:44.439Z,500.63
2018-04-27T07:51:44.347Z,478.13
2018-04-27T07:52:44.255Z,483.75
2018-04-27T07:53:44.164Z,506.25
2018-04-27T07:54:44.061Z,523.13
2018-04-27T07:55:43.969Z,534.38
2018-04-27T07:56:43.879Z,540.00
2018-04-27T07:57:43.788Z,540.00
2018-04-27T07:58:43.686Z,517.50
2018-04-27T07:59:43.597Z,478.13
2018-04-27T08:00:43.503Z,489.38
2018-04-27T08:01:43.412Z,478.13
2018-04-27T08:02:43.321Z,478.13
2018-04-27T08:03:43.218Z,489.38
2018-04-27T08:04:43.129Z,495.00
2018-04-27T08:05:43.036Z,489.38
2018-04-27T08:06:42.933Z,483.75
2018-04-27T08:07:42.843Z,483.75
2018-04-27T08:08:42.752Z,483.75
2018-04-27T08:09:42.650Z,466.88
2018-04-27T08:10:42.560Z,478.13
2018-04-27T08:11:42.466Z,466.88
2018-04-27T08:12:42.377Z,489.38
2018-04-27T08:13:42.273Z,478.13
2018-04-27T08:14:42.182Z,478.13
2018-04-27T08:15:42.091Z,450.00
2018-04-27T08:16:41.989Z,438.75
2018-04-27T08:17:41.896Z,416.25
2018-04-27T08:18:41.845Z,410.63
2018-04-27T08:19:41.703Z,421.88
2018-04-27T08:20:41.612Z,382.50
2018-04-27T08:21:41.521Z,376.88
2018-04-27T08:22:41.418Z,393.75
2018-04-27T08:23:41.326Z,399.38
2018-04-27T08:24:41.238Z,405.00
2018-04-27T08:25:41.133Z,399.38
2018-04-27T08:26:41.041Z,405.00
2018-04-27T08:27:40.951Z,410.63
2018-04-27T08:28:40.848Z,421.88
2018-04-27T08:29:40.756Z,427.50
2018-04-27T08:30:40.655Z,421.88
2018-04-27T08:31:40.563Z,410.63
2018-04-27T08:32:40.471Z,410.63
2018-04-27T08:33:40.368Z,410.63
2018-04-27T08:34:40.277Z,405.00
2018-04-27T08:35:40.186Z,410.63
2018-04-27T08:36:40.083Z,438.75
2018-04-27T08:37:40.006Z,455.63
2018-04-27T08:38:39.889Z,461.25
2018-04-27T08:39:39.798Z,444.38
2018-04-27T08:40:39.708Z,433.13
2018-04-27T08:41:39.605Z,427.50
2018-04-27T08:42:39.513Z,427.50
2018-04-27T08:43:39.410Z,433.13
2018-04-27T08:44:39.320Z,433.13
2018-04-27T08:45:39.228Z,433.13
2018-04-27T08:46:39.125Z,444.38
2018-04-27T08:47:39.034Z,472.50
2018-04-27T08:48:38.931Z,540.00
2018-04-27T08:49:38.840Z,635.63
2018-04-27T08:50:38.739Z,866.25
2018-04-27T08:51:38.648Z,1546.88
2018-04-27T08:52:38.555Z,2480.63
2018-04-27T08:53:38.454Z,3712.50
2018-04-27T08:54:38.362Z,3526.88
2018-04-27T08:55:38.259Z,3802.50
2018-04-27T08:56:38.167Z,3858.75
2018-04-27T08:57:38.066Z,3600.00
2018-04-27T08:58:37.974Z,3695.63
2018-04-27T08:59:37.884Z,3802.50
2018-04-27T09:00:37.781Z,3847.50
2018-04-27T09:01:37.689Z,3825.00
2018-04-27T09:02:37.588Z,3796.88
2018-04-27T09:03:37.495Z,810.00
2018-04-27T09:04:37.392Z,3290.63
2018-04-27T09:05:37.302Z,3864.38
2018-04-27T09:06:37.211Z,3836.25
2018-04-27T09:07:37.107Z,3425.63
2018-04-27T09:08:37.017Z,2531.25
2018-04-27T09:09:36.926Z,3549.38
2018-04-27T09:10:36.824Z,3690.00
2018-04-27T09:11:36.734Z,3504.38
2018-04-27T09:12:36.641Z,495.00
2018-04-27T09:13:36.551Z,534.38
2018-04-27T09:14:36.461Z,4005.00
2018-04-27T09:15:36.370Z,4230.00
2018-04-27T09:16:36.291Z,573.75
2018-04-27T09:17:36.188Z,3481.88
2018-04-27T09:18:36.096Z,3532.50
2018-04-27T09:19:35.995Z,3841.88
2018-04-27T09:20:35.905Z,3886.88
2018-04-27T09:21:35.834Z,4027.50
2018-04-27T09:22:35.733Z,3549.38
2018-04-27T09:23:35.644Z,607.50
2018-04-27T09:24:35.552Z,1726.88
2018-04-27T09:25:35.475Z,2739.38
2018-04-27T09:26:35.370Z,3504.38
2018-04-27T09:27:35.280Z,3886.88
2018-04-27T09:28:35.189Z,3853.13
2018-04-27T09:29:35.103Z,3999.38
2018-04-27T09:30:35.009Z,3853.13
2018-04-27T09:31:34.930Z,3937.50
2018-04-27T09:32:34.838Z,3819.38
2018-04-27T09:33:34.747Z,3909.38
2018-04-27T09:34:34.657Z,3830.63
2018-04-27T09:35:34.580Z,3965.63
2018-04-27T09:36:34.487Z,3954.38
2018-04-27T09:37:34.397Z,3881.25
2018-04-27T09:38:34.307Z,3847.50
2018-04-27T09:39:34.227Z,3892.50
2018-04-27T09:40:34.137Z,3701.25
2018-04-27T09:41:34.052Z,3583.13
2018-04-27T09:42:33.983Z,3684.38
2018-04-27T09:43:33.877Z,3628.13
2018-04-27T09:44:33.798Z,3656.25
2018-04-27T09:45:33.709Z,3740.63
2018-04-27T09:46:33.631Z,3836.25
2018-04-27T09:47:33.539Z,3903.75
2018-04-27T09:48:33.460Z,3701.25
2018-04-27T09:49:33.369Z,3667.50
2018-04-27T09:50:33.290Z,3622.50
2018-04-27T09:51:33.202Z,3616.88
2018-04-27T09:52:33.123Z,3864.38
2018-04-27T09:53:33.031Z,3802.50
2018-04-27T09:54:32.952Z,3830.63
2018-04-27T09:55:32.874Z,4061.25
2018-04-27T09:56:32.783Z,3729.38
2018-04-27T09:57:32.756Z,3712.50
2018-04-27T09:58:32.613Z,4038.75
2018-04-27T09:59:32.535Z,4055.63
2018-04-27T10:00:32.458Z,3909.38
2018-04-27T10:01:32.368Z,3971.25
2018-04-27T10:02:32.288Z,4246.88
2018-04-27T10:03:32.198Z,4370.63
2018-04-27T10:04:32.130Z,4106.25
2018-04-27T10:05:32.039Z,3915.00
2018-04-27T10:06:31.961Z,3993.75
2018-04-27T10:07:31.870Z,4218.75
2018-04-27T10:08:31.793Z,4027.50
2018-04-27T10:09:31.714Z,3954.38
2018-04-27T10:10:31.623Z,4269.38
2018-04-27T10:11:31.545Z,4038.75
2018-04-27T10:12:31.466Z,4185.00
2018-04-27T10:13:31.388Z,4005.00
2018-04-27T10:14:31.298Z,3701.25
2018-04-27T10:15:31.220Z,4089.38
2018-04-27T10:16:31.143Z,4066.88
2018-04-27T10:17:31.063Z,3875.63
2018-04-27T10:18:30.972Z,4033.13
2018-04-27T10:19:30.893Z,4179.38
2018-04-27T10:20:30.843Z,3954.38
2018-04-27T10:21:30.737Z,4325.63
2018-04-27T10:22:30.660Z,4269.38
2018-04-27T10:23:30.580Z,4179.38
2018-04-27T10:24:30.490Z,4471.88
2018-04-27T10:25:30.412Z,4320.00
2018-04-27T10:26:30.333Z,4331.25
2018-04-27T10:27:30.256Z,4539.38
2018-04-27T10:28:30.178Z,4471.88
2018-04-27T10:29:30.100Z,4533.75
2018-04-27T10:30:30.024Z,4702.50
2018-04-27T10:31:29.930Z,5051.25
2018-04-27T10:32:29.851Z,5326.88
2018-04-27T10:33:29.772Z,5495.63
2018-04-27T10:34:29.694Z,5242.50
2018-04-27T10:35:29.615Z,5175.00
2018-04-27T10:36:29.622Z,5259.38
2018-04-27T10:37:29.459Z,5124.38
2018-04-27T10:38:29.379Z,5231.25
2018-04-27T10:39:29.301Z,5495.63
2018-04-27T10:40:29.223Z,5428.13
2018-04-27T10:41:29.146Z,5293.13
2018-04-27T10:42:29.065Z,5113.13
2018-04-27T10:43:28.988Z,5158.13
2018-04-27T10:44:28.912Z,5158.13
2018-04-27T10:45:28.831Z,5298.75
2018-04-27T10:46:28.752Z,5512.50
2018-04-27T10:47:28.674Z,5580.00
2018-04-27T10:48:28.596Z,5506.88
2018-04-27T10:49:28.520Z,5310.00
2018-04-27T10:50:28.440Z,5371.88
2018-04-27T10:51:28.365Z,5332.50
2018-04-27T10:52:28.274Z,5242.50
2018-04-27T10:53:28.194Z,4483.13
2018-04-27T10:54:28.115Z,3847.50
2018-04-27T10:55:28.048Z,3920.63
2018-04-27T10:56:27.958Z,3982.50
2018-04-27T10:57:27.891Z,3571.88
2018-04-27T10:58:27.816Z,4005.00
2018-04-27T10:59:27.747Z,1929.38
2018-04-27T11:00:27.657Z,1153.13
2018-04-27T11:01:27.626Z,855.00
2018-04-27T11:02:27.500Z,1265.63
2018-04-27T11:03:27.445Z,1338.75
2018-04-27T11:04:27.343Z,635.63
2018-04-27T11:05:27.265Z,3600.00
2018-04-27T11:06:27.187Z,4280.63
2018-04-27T11:07:27.097Z,3892.50
2018-04-27T11:08:27.019Z,3661.88
2018-04-27T11:09:26.940Z,3324.38
2018-04-27T11:10:26.862Z,3031.88
2018-04-27T11:11:26.784Z,2925.00
2018-04-27T11:12:26.705Z,2733.75
2018-04-27T11:13:26.627Z,2486.25
2018-04-27T11:14:26.536Z,393.75
2018-04-27T11:15:26.458Z,354.38
2018-04-27T11:16:26.381Z,360.00
2018-04-27T11:17:26.215Z,1220.63
2018-04-27T11:18:26.136Z,2002.50
2018-04-27T11:19:26.050Z,2154.38
2018-04-27T11:20:26.055Z,2205.00
2018-04-27T11:21:25.971Z,2160.00
2018-04-27T11:22:25.886Z,1822.50
2018-04-27T11:23:25.808Z,1490.63
2018-04-27T11:24:25.718Z,877.50
2018-04-27T11:25:25.638Z,652.50
2018-04-27T11:26:25.548Z,596.25
2018-04-27T11:27:25.381Z,545.63
2018-04-27T11:28:25.304Z,562.50
2018-04-27T11:29:25.214Z,573.75
2018-04-27T11:30:25.135Z,573.75
2018-04-27T11:31:25.136Z,590.63
2018-04-27T11:32:25.053Z,585.00
2018-04-27T11:33:24.962Z,556.88
2018-04-27T11:34:24.884Z,534.38
2018-04-27T11:35:24.793Z,495.00
2018-04-27T11:36:24.704Z,461.25
2018-04-27T11:37:24.625Z,438.75
2018-04-27T11:38:24.533Z,455.63
2018-04-27T11:39:24.455Z,466.88
2018-04-27T11:40:24.365Z,455.63
2018-04-27T11:41:24.272Z,472.50
2018-04-27T11:42:24.195Z,478.13
2018-04-27T11:43:24.108Z,483.75
2018-04-27T11:44:24.013Z,495.00
2018-04-27T11:45:23.922Z,534.38
2018-04-27T11:46:23.845Z,534.38
2018-04-27T11:47:23.754Z,495.00
2018-04-27T11:48:23.662Z,455.63
2018-04-27T11:49:23.572Z,455.63
2018-04-27T11:50:23.488Z,472.50
2018-04-27T11:51:23.403Z,455.63
2018-04-27T11:52:23.324Z,438.75
2018-04-27T11:53:23.221Z,427.50
2018-04-27T11:54:23.129Z,405.00
2018-04-27T11:55:23.040Z,405.00
2018-04-27T11:56:22.947Z,438.75
2018-04-27T11:57:22.858Z,478.13
2018-04-27T11:58:22.766Z,517.50
2018-04-27T11:59:22.677Z,528.75
2018-04-27T12:00:22.584Z,545.63
2018-04-27T12:01:22.494Z,517.50
2018-04-27T12:02:22.407Z,466.88
2018-04-27T12:03:22.315Z,450.00
2018-04-27T12:04:22.222Z,450.00
2018-04-27T12:05:22.130Z,495.00
2018-04-27T12:06:22.040Z,579.38
2018-04-27T12:07:21.950Z,613.13
2018-04-27T12:08:21.858Z,646.88
2018-04-27T12:09:21.768Z,635.63
2018-04-27T12:10:21.690Z,646.88
2018-04-27T12:11:21.586Z,641.25
2018-04-27T12:12:21.494Z,613.13
2018-04-27T12:13:21.405Z,579.38
2018-04-27T12:14:21.326Z,573.75
2018-04-27T12:15:21.223Z,579.38
2018-04-27T12:16:21.131Z,607.50
2018-04-27T12:17:21.041Z,630.00
2018-04-27T12:18:20.950Z,624.38
2018-04-27T12:19:21.109Z,630.00
2018-04-27T12:20:20.768Z,630.00
2018-04-27T12:21:20.683Z,613.13
2018-04-27T12:22:20.587Z,601.88
2018-04-27T12:23:20.509Z,596.25
2018-04-27T12:24:20.443Z,590.63
2018-04-27T12:25:20.326Z,585.00
2018-04-27T12:26:20.237Z,562.50
2018-04-27T12:27:20.144Z,540.00
2018-04-27T12:28:20.054Z,523.13
2018-04-27T12:29:19.963Z,517.50
2018-04-27T12:30:19.874Z,523.13
2018-04-27T12:31:19.822Z,534.38
2018-04-27T12:32:19.691Z,540.00
2018-04-27T12:33:19.601Z,551.25
2018-04-27T12:34:19.509Z,562.50
2018-04-27T12:35:19.418Z,556.88
2018-04-27T12:36:19.327Z,534.38